sensor_id;sensor_type;location;lat;lon;timestamp;P1;durP1;ratioP1;P2;durP2;ratioP2
6513;SDS011;3290;47.716;9.070;2022-09-09T00:00:49;3.10;;;1.80;;
6513;SDS011;3290;47.716;9.070;2022-09-09T00:03:28;5.97;;;1.90;;
6513;SDS011;3290;47.716;9.070;2022-09-09T00:11:53;3.40;;;1.43;;
6513;SDS011;3290;47.716;9.070;2022-09-09T00:14:31;7.10;;;1.67;;
6513;SDS011;3290;47.716;9.070;2022-09-09T00:17:08;3.67;;;1.77;;
6513;SDS011;3290;47.716;9.070;2022-09-09T00:20:01;3.43;;;1.50;;
6513;SDS011;3290;47.716;9.070;2022-09-09T00:22:34;9.40;;;1.87;;
6513;SDS011;3290;47.716;9.070;2022-09-09T00:25:10;4.20;;;1.60;;
6513;SDS011;3290;47.716;9.070;2022-09-09T00:27:44;3.83;;;1.77;;
6513;SDS011;3290;47.716;9.070;2022-09-09T00:30:13;3.00;;;1.77;;
6513;SDS011;3290;47.716;9.070;2022-09-09T00:32:46;6.20;;;1.67;;
6513;SDS011;3290;47.716;9.070;2022-09-09T00:35:26;6.93;;;1.87;;
6513;SDS011;3290;47.716;9.070;2022-09-09T00:37:56;4.90;;;2.10;;
6513;SDS011;3290;47.716;9.070;2022-09-09T00:40:29;8.13;;;2.23;;
6513;SDS011;3290;47.716;9.070;2022-09-09T00:51:41;6.73;;;1.77;;
6513;SDS011;3290;47.716;9.070;2022-09-09T01:03:13;4.67;;;1.57;;
6513;SDS011;3290;47.716;9.070;2022-09-09T01:05:41;4.30;;;1.73;;
6513;SDS011;3290;47.716;9.070;2022-09-09T01:08:12;3.10;;;1.93;;
6513;SDS011;3290;47.716;9.070;2022-09-09T01:10:53;7.10;;;2.20;;
6513;SDS011;3290;47.716;9.070;2022-09-09T01:13:23;5.80;;;1.77;;
6513;SDS011;3290;47.716;9.070;2022-09-09T01:15:51;2.90;;;1.90;;
6513;SDS011;3290;47.716;9.070;2022-09-09T01:18:21;9.83;;;1.80;;
6513;SDS011;3290;47.716;9.070;2022-09-09T01:26:41;5.97;;;1.70;;
6513;SDS011;3290;47.716;9.070;2022-09-09T01:29:09;3.13;;;1.40;;
6513;SDS011;3290;47.716;9.070;2022-09-09T01:31:37;2.77;;;1.50;;
6513;SDS011;3290;47.716;9.070;2022-09-09T01:34:09;4.73;;;2.10;;
6513;SDS011;3290;47.716;9.070;2022-09-09T01:36:43;4.30;;;2.07;;
6513;SDS011;3290;47.716;9.070;2022-09-09T01:39:15;4.20;;;1.87;;
6513;SDS011;3290;47.716;9.070;2022-09-09T01:41:41;4.80;;;1.80;;
6513;SDS011;3290;47.716;9.070;2022-09-09T01:44:07;5.93;;;1.43;;
6513;SDS011;3290;47.716;9.070;2022-09-09T01:46:34;2.93;;;1.87;;
6513;SDS011;3290;47.716;9.070;2022-09-09T01:49:00;5.10;;;1.50;;
6513;SDS011;3290;47.716;9.070;2022-09-09T01:51:28;5.33;;;2.20;;
6513;SDS011;3290;47.716;9.070;2022-09-09T01:53:55;5.67;;;1.90;;
6513;SDS011;3290;47.716;9.070;2022-09-09T02:04:28;5.87;;;2.00;;
6513;SDS011;3290;47.716;9.070;2022-09-09T02:06:57;5.40;;;2.10;;
6513;SDS011;3290;47.716;9.070;2022-09-09T02:09:25;3.80;;;2.10;;
6513;SDS011;3290;47.716;9.070;2022-09-09T02:11:53;6.33;;;1.90;;
6513;SDS011;3290;47.716;9.070;2022-09-09T02:14:27;4.23;;;2.27;;
6513;SDS011;3290;47.716;9.070;2022-09-09T02:17:01;8.30;;;2.03;;
6513;SDS011;3290;47.716;9.070;2022-09-09T02:19:32;3.20;;;1.60;;
6513;SDS011;3290;47.716;9.070;2022-09-09T02:22:02;3.70;;;2.40;;
6513;SDS011;3290;47.716;9.070;2022-09-09T02:24:30;4.83;;;1.83;;
6513;SDS011;3290;47.716;9.070;2022-09-09T02:26:59;4.13;;;2.03;;
6513;SDS011;3290;47.716;9.070;2022-09-09T02:29:50;4.20;;;2.20;;
6513;SDS011;3290;47.716;9.070;2022-09-09T02:32:16;4.63;;;1.80;;
6513;SDS011;3290;47.716;9.070;2022-09-09T02:34:46;2.80;;;1.67;;
6513;SDS011;3290;47.716;9.070;2022-09-09T02:37:15;8.43;;;1.73;;
6513;SDS011;3290;47.716;9.070;2022-09-09T02:39:43;3.97;;;1.73;;
6513;SDS011;3290;47.716;9.070;2022-09-09T02:42:09;4.20;;;1.90;;
6513;SDS011;3290;47.716;9.070;2022-09-09T02:44:34;2.60;;;1.60;;
6513;SDS011;3290;47.716;9.070;2022-09-09T02:52:45;5.83;;;2.03;;
6513;SDS011;3290;47.716;9.070;2022-09-09T02:55:28;4.67;;;2.03;;
6513;SDS011;3290;47.716;9.070;2022-09-09T02:58:02;8.07;;;2.00;;
6513;SDS011;3290;47.716;9.070;2022-09-09T03:00:32;6.10;;;2.27;;
6513;SDS011;3290;47.716;9.070;2022-09-09T03:02:58;3.10;;;1.63;;
6513;SDS011;3290;47.716;9.070;2022-09-09T03:05:23;8.80;;;2.20;;
6513;SDS011;3290;47.716;9.070;2022-09-09T03:07:50;6.27;;;2.10;;
6513;SDS011;3290;47.716;9.070;2022-09-09T03:10:16;6.23;;;2.00;;
6513;SDS011;3290;47.716;9.070;2022-09-09T03:12:42;5.57;;;1.70;;
6513;SDS011;3290;47.716;9.070;2022-09-09T03:15:08;8.27;;;1.93;;
6513;SDS011;3290;47.716;9.070;2022-09-09T03:17:34;9.67;;;2.10;;
6513;SDS011;3290;47.716;9.070;2022-09-09T03:20:00;5.33;;;2.00;;
6513;SDS011;3290;47.716;9.070;2022-09-09T03:22:27;8.93;;;2.20;;
6513;SDS011;3290;47.716;9.070;2022-09-09T03:24:52;4.70;;;2.10;;
6513;SDS011;3290;47.716;9.070;2022-09-09T03:27:18;5.90;;;2.10;;
6513;SDS011;3290;47.716;9.070;2022-09-09T03:29:44;3.57;;;1.80;;
6513;SDS011;3290;47.716;9.070;2022-09-09T03:32:10;9.53;;;1.60;;
6513;SDS011;3290;47.716;9.070;2022-09-09T03:34:37;5.20;;;2.00;;
6513;SDS011;3290;47.716;9.070;2022-09-09T03:37:05;4.20;;;2.10;;
6513;SDS011;3290;47.716;9.070;2022-09-09T03:39:31;2.43;;;1.90;;
6513;SDS011;3290;47.716;9.070;2022-09-09T03:41:56;3.17;;;1.70;;
6513;SDS011;3290;47.716;9.070;2022-09-09T03:44:22;7.83;;;2.30;;
6513;SDS011;3290;47.716;9.070;2022-09-09T03:46:47;4.83;;;1.67;;
6513;SDS011;3290;47.716;9.070;2022-09-09T03:49:12;3.90;;;1.80;;
6513;SDS011;3290;47.716;9.070;2022-09-09T03:51:38;9.53;;;2.20;;
6513;SDS011;3290;47.716;9.070;2022-09-09T03:54:05;4.47;;;2.13;;
6513;SDS011;3290;47.716;9.070;2022-09-09T03:56:33;4.73;;;2.60;;
6513;SDS011;3290;47.716;9.070;2022-09-09T03:58:59;8.33;;;2.87;;
6513;SDS011;3290;47.716;9.070;2022-09-09T04:01:24;6.00;;;2.30;;
6513;SDS011;3290;47.716;9.070;2022-09-09T04:03:49;5.23;;;2.30;;
6513;SDS011;3290;47.716;9.070;2022-09-09T04:06:15;8.80;;;2.20;;
6513;SDS011;3290;47.716;9.070;2022-09-09T04:08:41;2.90;;;1.73;;
6513;SDS011;3290;47.716;9.070;2022-09-09T04:11:07;6.80;;;2.07;;
6513;SDS011;3290;47.716;9.070;2022-09-09T04:13:33;4.20;;;1.80;;
6513;SDS011;3290;47.716;9.070;2022-09-09T04:16:00;10.83;;;2.40;;
6513;SDS011;3290;47.716;9.070;2022-09-09T04:18:28;3.80;;;2.10;;
6513;SDS011;3290;47.716;9.070;2022-09-09T04:20:54;4.47;;;2.00;;
6513;SDS011;3290;47.716;9.070;2022-09-09T04:23:22;2.13;;;1.83;;
6513;SDS011;3290;47.716;9.070;2022-09-09T04:25:52;4.30;;;2.43;;
6513;SDS011;3290;47.716;9.070;2022-09-09T04:28:18;9.47;;;2.10;;
6513;SDS011;3290;47.716;9.070;2022-09-09T04:30:45;5.43;;;2.10;;
6513;SDS011;3290;47.716;9.070;2022-09-09T04:33:11;5.23;;;2.00;;
6513;SDS011;3290;47.716;9.070;2022-09-09T04:35:37;5.63;;;2.03;;
6513;SDS011;3290;47.716;9.070;2022-09-09T04:38:04;3.00;;;1.50;;
6513;SDS011;3290;47.716;9.070;2022-09-09T04:40:32;2.60;;;1.57;;
6513;SDS011;3290;47.716;9.070;2022-09-09T04:42:58;1.40;;;1.30;;
6513;SDS011;3290;47.716;9.070;2022-09-09T04:45:24;6.27;;;1.30;;
6513;SDS011;3290;47.716;9.070;2022-09-09T04:47:51;4.60;;;1.70;;
6513;SDS011;3290;47.716;9.070;2022-09-09T04:50:17;6.17;;;1.57;;
6513;SDS011;3290;47.716;9.070;2022-09-09T04:52:43;4.60;;;1.50;;
6513;SDS011;3290;47.716;9.070;2022-09-09T04:55:09;6.20;;;1.50;;
6513;SDS011;3290;47.716;9.070;2022-09-09T04:57:34;2.97;;;2.00;;
6513;SDS011;3290;47.716;9.070;2022-09-09T05:00:00;8.03;;;2.63;;
6513;SDS011;3290;47.716;9.070;2022-09-09T05:02:27;2.00;;;1.57;;
6513;SDS011;3290;47.716;9.070;2022-09-09T05:04:52;8.37;;;2.40;;
6513;SDS011;3290;47.716;9.070;2022-09-09T05:07:17;15.60;;;2.13;;
6513;SDS011;3290;47.716;9.070;2022-09-09T05:09:44;5.37;;;1.90;;
6513;SDS011;3290;47.716;9.070;2022-09-09T05:12:10;9.93;;;2.40;;
6513;SDS011;3290;47.716;9.070;2022-09-09T05:14:36;8.60;;;2.10;;
6513;SDS011;3290;47.716;9.070;2022-09-09T05:17:02;23.50;;;3.30;;
6513;SDS011;3290;47.716;9.070;2022-09-09T05:19:28;5.10;;;2.40;;
6513;SDS011;3290;47.716;9.070;2022-09-09T05:21:53;4.40;;;2.03;;
6513;SDS011;3290;47.716;9.070;2022-09-09T05:24:19;6.90;;;2.77;;
6513;SDS011;3290;47.716;9.070;2022-09-09T05:26:44;6.70;;;3.30;;
6513;SDS011;3290;47.716;9.070;2022-09-09T05:29:10;3.40;;;2.10;;
6513;SDS011;3290;47.716;9.070;2022-09-09T05:31:35;5.10;;;2.00;;
6513;SDS011;3290;47.716;9.070;2022-09-09T05:34:01;8.10;;;2.47;;
6513;SDS011;3290;47.716;9.070;2022-09-09T05:36:27;2.90;;;1.90;;
6513;SDS011;3290;47.716;9.070;2022-09-09T05:38:52;3.40;;;2.00;;
6513;SDS011;3290;47.716;9.070;2022-09-09T05:41:18;2.77;;;1.73;;
6513;SDS011;3290;47.716;9.070;2022-09-09T05:43:45;4.73;;;1.97;;
6513;SDS011;3290;47.716;9.070;2022-09-09T05:46:19;5.23;;;2.10;;
6513;SDS011;3290;47.716;9.070;2022-09-09T05:48:46;4.73;;;1.70;;
6513;SDS011;3290;47.716;9.070;2022-09-09T05:51:16;2.73;;;2.20;;
6513;SDS011;3290;47.716;9.070;2022-09-09T05:53:44;4.53;;;1.70;;
6513;SDS011;3290;47.716;9.070;2022-09-09T05:56:11;3.53;;;1.73;;
6513;SDS011;3290;47.716;9.070;2022-09-09T05:58:45;5.13;;;2.00;;
6513;SDS011;3290;47.716;9.070;2022-09-09T06:01:23;6.90;;;1.87;;
6513;SDS011;3290;47.716;9.070;2022-09-09T06:03:53;5.57;;;1.60;;
6513;SDS011;3290;47.716;9.070;2022-09-09T06:06:20;6.63;;;2.20;;
6513;SDS011;3290;47.716;9.070;2022-09-09T06:08:51;2.33;;;2.07;;
6513;SDS011;3290;47.716;9.070;2022-09-09T06:11:22;4.20;;;1.87;;
6513;SDS011;3290;47.716;9.070;2022-09-09T06:13:49;2.27;;;1.20;;
6513;SDS011;3290;47.716;9.070;2022-09-09T06:16:20;3.83;;;1.23;;
6513;SDS011;3290;47.716;9.070;2022-09-09T06:18:50;1.67;;;1.23;;
6513;SDS011;3290;47.716;9.070;2022-09-09T06:21:20;2.70;;;1.20;;
6513;SDS011;3290;47.716;9.070;2022-09-09T06:23:47;2.00;;;1.03;;
6513;SDS011;3290;47.716;9.070;2022-09-09T06:26:23;3.13;;;1.40;;
6513;SDS011;3290;47.716;9.070;2022-09-09T06:28:54;2.90;;;1.30;;
6513;SDS011;3290;47.716;9.070;2022-09-09T06:31:21;1.67;;;1.10;;
6513;SDS011;3290;47.716;9.070;2022-09-09T06:33:51;3.80;;;1.50;;
6513;SDS011;3290;47.716;9.070;2022-09-09T06:36:25;2.83;;;1.23;;
6513;SDS011;3290;47.716;9.070;2022-09-09T06:38:52;2.00;;;1.37;;
6513;SDS011;3290;47.716;9.070;2022-09-09T06:41:18;4.10;;;1.03;;
6513;SDS011;3290;47.716;9.070;2022-09-09T06:43:46;2.27;;;1.07;;
6513;SDS011;3290;47.716;9.070;2022-09-09T06:46:12;1.53;;;1.20;;
6513;SDS011;3290;47.716;9.070;2022-09-09T06:48:43;2.03;;;1.73;;
6513;SDS011;3290;47.716;9.070;2022-09-09T06:51:10;3.63;;;1.43;;
6513;SDS011;3290;47.716;9.070;2022-09-09T06:53:38;1.67;;;1.20;;
6513;SDS011;3290;47.716;9.070;2022-09-09T06:58:39;1.37;;;1.23;;
6513;SDS011;3290;47.716;9.070;2022-09-09T07:01:09;3.10;;;1.50;;
6513;SDS011;3290;47.716;9.070;2022-09-09T07:03:40;3.77;;;1.20;;
6513;SDS011;3290;47.716;9.070;2022-09-09T07:06:07;4.63;;;1.40;;
6513;SDS011;3290;47.716;9.070;2022-09-09T07:08:39;2.70;;;1.30;;
6513;SDS011;3290;47.716;9.070;2022-09-09T07:11:05;1.80;;;1.20;;
6513;SDS011;3290;47.716;9.070;2022-09-09T07:13:32;2.33;;;1.40;;
6513;SDS011;3290;47.716;9.070;2022-09-09T07:16:08;1.70;;;1.00;;
6513;SDS011;3290;47.716;9.070;2022-09-09T07:18:35;2.30;;;0.97;;
6513;SDS011;3290;47.716;9.070;2022-09-09T07:21:02;1.77;;;1.10;;
6513;SDS011;3290;47.716;9.070;2022-09-09T07:23:28;1.03;;;0.93;;
6513;SDS011;3290;47.716;9.070;2022-09-09T07:25:55;1.53;;;1.30;;
6513;SDS011;3290;47.716;9.070;2022-09-09T07:28:21;3.73;;;1.20;;
6513;SDS011;3290;47.716;9.070;2022-09-09T07:30:54;1.23;;;1.00;;
6513;SDS011;3290;47.716;9.070;2022-09-09T07:33:21;2.70;;;1.00;;
6513;SDS011;3290;47.716;9.070;2022-09-09T07:35:46;1.57;;;1.20;;
6513;SDS011;3290;47.716;9.070;2022-09-09T07:38:12;1.33;;;1.07;;
6513;SDS011;3290;47.716;9.070;2022-09-09T07:40:37;1.90;;;1.00;;
6513;SDS011;3290;47.716;9.070;2022-09-09T07:43:04;2.00;;;1.00;;
6513;SDS011;3290;47.716;9.070;2022-09-09T07:45:30;1.63;;;0.90;;
6513;SDS011;3290;47.716;9.070;2022-09-09T07:47:57;1.67;;;1.10;;
6513;SDS011;3290;47.716;9.070;2022-09-09T07:50:23;1.67;;;1.00;;
6513;SDS011;3290;47.716;9.070;2022-09-09T07:52:49;1.67;;;1.23;;
6513;SDS011;3290;47.716;9.070;2022-09-09T07:55:15;2.33;;;1.20;;
6513;SDS011;3290;47.716;9.070;2022-09-09T07:57:41;2.60;;;0.90;;
6513;SDS011;3290;47.716;9.070;2022-09-09T08:00:06;1.47;;;1.00;;
6513;SDS011;3290;47.716;9.070;2022-09-09T08:02:32;1.73;;;1.20;;
6513;SDS011;3290;47.716;9.070;2022-09-09T08:04:57;1.30;;;1.00;;
6513;SDS011;3290;47.716;9.070;2022-09-09T08:07:23;1.97;;;1.10;;
6513;SDS011;3290;47.716;9.070;2022-09-09T08:09:49;3.13;;;1.47;;
6513;SDS011;3290;47.716;9.070;2022-09-09T08:12:14;2.40;;;1.13;;
6513;SDS011;3290;47.716;9.070;2022-09-09T08:14:40;1.50;;;1.20;;
6513;SDS011;3290;47.716;9.070;2022-09-09T08:17:05;4.20;;;1.23;;
6513;SDS011;3290;47.716;9.070;2022-09-09T08:19:31;2.33;;;1.20;;
6513;SDS011;3290;47.716;9.070;2022-09-09T08:22:00;4.70;;;1.20;;
6513;SDS011;3290;47.716;9.070;2022-09-09T08:24:27;2.47;;;1.27;;
6513;SDS011;3290;47.716;9.070;2022-09-09T08:26:52;3.20;;;1.27;;
6513;SDS011;3290;47.716;9.070;2022-09-09T08:29:18;4.50;;;1.10;;
6513;SDS011;3290;47.716;9.070;2022-09-09T08:31:48;2.23;;;1.07;;
6513;SDS011;3290;47.716;9.070;2022-09-09T08:34:16;2.53;;;1.00;;
6513;SDS011;3290;47.716;9.070;2022-09-09T08:36:45;2.40;;;1.10;;
6513;SDS011;3290;47.716;9.070;2022-09-09T08:39:13;3.73;;;0.93;;
6513;SDS011;3290;47.716;9.070;2022-09-09T08:44:26;2.63;;;1.30;;
6513;SDS011;3290;47.716;9.070;2022-09-09T08:52:18;2.60;;;1.10;;
6513;SDS011;3290;47.716;9.070;2022-09-09T08:54:50;1.80;;;0.97;;
6513;SDS011;3290;47.716;9.070;2022-09-09T08:57:25;1.13;;;1.03;;
6513;SDS011;3290;47.716;9.070;2022-09-09T08:59:54;2.63;;;1.10;;
6513;SDS011;3290;47.716;9.070;2022-09-09T09:02:39;2.33;;;1.20;;
6513;SDS011;3290;47.716;9.070;2022-09-09T09:08:12;1.77;;;1.20;;
6513;SDS011;3290;47.716;9.070;2022-09-09T09:10:48;1.63;;;1.10;;
6513;SDS011;3290;47.716;9.070;2022-09-09T09:18:58;3.70;;;1.30;;
6513;SDS011;3290;47.716;9.070;2022-09-09T09:24:55;1.67;;;1.30;;
6513;SDS011;3290;47.716;9.070;2022-09-09T09:27:15;1.87;;;1.20;;
6513;SDS011;3290;47.716;9.070;2022-09-09T09:29:46;2.83;;;1.27;;
6513;SDS011;3290;47.716;9.070;2022-09-09T09:32:16;4.00;;;1.10;;
6513;SDS011;3290;47.716;9.070;2022-09-09T09:34:48;2.97;;;1.10;;
6513;SDS011;3290;47.716;9.070;2022-09-09T09:37:25;3.37;;;1.50;;
6513;SDS011;3290;47.716;9.070;2022-09-09T09:39:54;2.27;;;1.30;;
6513;SDS011;3290;47.716;9.070;2022-09-09T09:42:20;5.07;;;1.20;;
6513;SDS011;3290;47.716;9.070;2022-09-09T09:44:46;6.47;;;1.40;;
6513;SDS011;3290;47.716;9.070;2022-09-09T09:49:53;2.73;;;1.30;;
6513;SDS011;3290;47.716;9.070;2022-09-09T09:52:24;3.00;;;1.43;;
6513;SDS011;3290;47.716;9.070;2022-09-09T09:54:52;2.03;;;1.00;;
6513;SDS011;3290;47.716;9.070;2022-09-09T09:57:18;2.27;;;1.20;;
6513;SDS011;3290;47.716;9.070;2022-09-09T10:00:06;4.10;;;1.30;;
6513;SDS011;3290;47.716;9.070;2022-09-09T10:02:40;2.03;;;1.00;;
6513;SDS011;3290;47.716;9.070;2022-09-09T10:07:42;2.27;;;1.40;;
6513;SDS011;3290;47.716;9.070;2022-09-09T10:10:15;5.03;;;1.63;;
6513;SDS011;3290;47.716;9.070;2022-09-09T10:12:59;1.57;;;1.03;;
6513;SDS011;3290;47.716;9.070;2022-09-09T10:21:23;3.03;;;1.10;;
6513;SDS011;3290;47.716;9.070;2022-09-09T10:34:58;4.03;;;1.20;;
6513;SDS011;3290;47.716;9.070;2022-09-09T10:40:42;4.43;;;1.20;;
6513;SDS011;3290;47.716;9.070;2022-09-09T10:46:16;2.33;;;1.13;;
6513;SDS011;3290;47.716;9.070;2022-09-09T10:51:51;1.40;;;1.00;;
6513;SDS011;3290;47.716;9.070;2022-09-09T10:56:51;4.63;;;1.63;;
6513;SDS011;3290;47.716;9.070;2022-09-09T10:59:23;2.70;;;1.20;;
6513;SDS011;3290;47.716;9.070;2022-09-09T11:04:42;4.57;;;1.13;;
6513;SDS011;3290;47.716;9.070;2022-09-09T11:07:10;6.70;;;2.00;;
6513;SDS011;3290;47.716;9.070;2022-09-09T11:09:43;5.00;;;1.10;;
6513;SDS011;3290;47.716;9.070;2022-09-09T11:12:17;4.53;;;1.23;;
6513;SDS011;3290;47.716;9.070;2022-09-09T11:14:49;8.00;;;1.50;;
6513;SDS011;3290;47.716;9.070;2022-09-09T11:17:29;6.43;;;1.30;;
6513;SDS011;3290;47.716;9.070;2022-09-09T11:20:01;6.00;;;1.20;;
6513;SDS011;3290;47.716;9.070;2022-09-09T11:25:03;4.97;;;1.20;;
6513;SDS011;3290;47.716;9.070;2022-09-09T11:38:46;2.57;;;1.10;;
6513;SDS011;3290;47.716;9.070;2022-09-09T11:41:16;1.43;;;0.90;;
6513;SDS011;3290;47.716;9.070;2022-09-09T11:43:47;4.03;;;1.10;;
6513;SDS011;3290;47.716;9.070;2022-09-09T11:46:31;3.23;;;1.50;;
6513;SDS011;3290;47.716;9.070;2022-09-09T11:49:03;2.37;;;1.33;;
6513;SDS011;3290;47.716;9.070;2022-09-09T11:51:31;1.77;;;1.20;;
6513;SDS011;3290;47.716;9.070;2022-09-09T11:54:02;2.87;;;1.30;;
6513;SDS011;3290;47.716;9.070;2022-09-09T11:56:48;1.57;;;0.83;;
6513;SDS011;3290;47.716;9.070;2022-09-09T11:59:32;4.20;;;1.30;;
6513;SDS011;3290;47.716;9.070;2022-09-09T12:01:58;3.40;;;1.07;;
6513;SDS011;3290;47.716;9.070;2022-09-09T12:04:43;3.50;;;1.10;;
6513;SDS011;3290;47.716;9.070;2022-09-09T12:10:25;1.63;;;0.90;;
6513;SDS011;3290;47.716;9.070;2022-09-09T12:12:54;3.30;;;1.13;;
6513;SDS011;3290;47.716;9.070;2022-09-09T12:17:48;1.57;;;1.00;;
6513;SDS011;3290;47.716;9.070;2022-09-09T12:20:31;3.00;;;1.20;;
6513;SDS011;3290;47.716;9.070;2022-09-09T12:23:17;2.30;;;0.90;;
6513;SDS011;3290;47.716;9.070;2022-09-09T12:28:50;3.80;;;1.03;;
6513;SDS011;3290;47.716;9.070;2022-09-09T12:34:14;4.10;;;1.57;;
6513;SDS011;3290;47.716;9.070;2022-09-09T12:36:43;2.20;;;0.97;;
6513;SDS011;3290;47.716;9.070;2022-09-09T12:39:16;3.60;;;1.07;;
6513;SDS011;3290;47.716;9.070;2022-09-09T12:41:51;2.00;;;1.00;;
6513;SDS011;3290;47.716;9.070;2022-09-09T12:44:21;7.17;;;1.10;;
6513;SDS011;3290;47.716;9.070;2022-09-09T12:46:47;3.30;;;1.23;;
6513;SDS011;3290;47.716;9.070;2022-09-09T12:52:47;3.10;;;1.07;;
6513;SDS011;3290;47.716;9.070;2022-09-09T12:55:04;4.50;;;1.10;;
6513;SDS011;3290;47.716;9.070;2022-09-09T12:57:35;2.93;;;0.97;;
6513;SDS011;3290;47.716;9.070;2022-09-09T13:00:05;2.60;;;1.10;;
6513;SDS011;3290;47.716;9.070;2022-09-09T13:02:45;3.07;;;1.27;;
6513;SDS011;3290;47.716;9.070;2022-09-09T13:07:48;2.13;;;0.93;;
6513;SDS011;3290;47.716;9.070;2022-09-09T13:10:14;2.70;;;1.40;;
6513;SDS011;3290;47.716;9.070;2022-09-09T13:12:47;3.53;;;1.40;;
6513;SDS011;3290;47.716;9.070;2022-09-09T13:15:16;4.83;;;1.40;;
6513;SDS011;3290;47.716;9.070;2022-09-09T13:17:57;1.50;;;1.03;;
6513;SDS011;3290;47.716;9.070;2022-09-09T13:20:27;7.93;;;1.50;;
6513;SDS011;3290;47.716;9.070;2022-09-09T13:22:53;2.97;;;1.00;;
6513;SDS011;3290;47.716;9.070;2022-09-09T13:25:24;3.53;;;1.27;;
6513;SDS011;3290;47.716;9.070;2022-09-09T13:28:01;2.37;;;0.97;;
6513;SDS011;3290;47.716;9.070;2022-09-09T13:30:38;1.40;;;0.93;;
6513;SDS011;3290;47.716;9.070;2022-09-09T13:35:45;4.00;;;1.50;;
6513;SDS011;3290;47.716;9.070;2022-09-09T13:38:14;3.10;;;1.03;;
6513;SDS011;3290;47.716;9.070;2022-09-09T13:40:40;2.70;;;0.90;;
6513;SDS011;3290;47.716;9.070;2022-09-09T13:43:20;2.37;;;0.97;;
6513;SDS011;3290;47.716;9.070;2022-09-09T13:45:57;3.83;;;1.10;;
6513;SDS011;3290;47.716;9.070;2022-09-09T13:48:26;1.63;;;1.10;;
6513;SDS011;3290;47.716;9.070;2022-09-09T13:50:55;1.83;;;1.20;;
6513;SDS011;3290;47.716;9.070;2022-09-09T13:53:26;1.97;;;0.90;;
6513;SDS011;3290;47.716;9.070;2022-09-09T13:55:52;2.27;;;1.13;;
6513;SDS011;3290;47.716;9.070;2022-09-09T13:58:18;3.83;;;1.33;;
6513;SDS011;3290;47.716;9.070;2022-09-09T14:00:44;2.37;;;0.90;;
6513;SDS011;3290;47.716;9.070;2022-09-09T14:03:10;4.20;;;1.23;;
6513;SDS011;3290;47.716;9.070;2022-09-09T14:05:36;3.63;;;1.20;;
6513;SDS011;3290;47.716;9.070;2022-09-09T14:08:05;1.30;;;0.87;;
6513;SDS011;3290;47.716;9.070;2022-09-09T14:10:32;5.13;;;1.17;;
6513;SDS011;3290;47.716;9.070;2022-09-09T14:13:00;4.70;;;1.07;;
6513;SDS011;3290;47.716;9.070;2022-09-09T14:15:26;3.90;;;1.10;;
6513;SDS011;3290;47.716;9.070;2022-09-09T14:17:52;4.40;;;1.37;;
6513;SDS011;3290;47.716;9.070;2022-09-09T14:20:17;5.50;;;1.27;;
6513;SDS011;3290;47.716;9.070;2022-09-09T14:22:44;2.63;;;1.10;;
6513;SDS011;3290;47.716;9.070;2022-09-09T14:25:09;3.43;;;1.17;;
6513;SDS011;3290;47.716;9.070;2022-09-09T14:27:36;1.90;;;1.00;;
6513;SDS011;3290;47.716;9.070;2022-09-09T14:30:03;1.70;;;1.00;;
6513;SDS011;3290;47.716;9.070;2022-09-09T14:32:29;3.70;;;1.30;;
6513;SDS011;3290;47.716;9.070;2022-09-09T14:34:54;3.10;;;1.00;;
6513;SDS011;3290;47.716;9.070;2022-09-09T14:37:20;4.00;;;1.10;;
6513;SDS011;3290;47.716;9.070;2022-09-09T14:39:45;2.40;;;1.03;;
6513;SDS011;3290;47.716;9.070;2022-09-09T14:42:12;3.53;;;1.03;;
6513;SDS011;3290;47.716;9.070;2022-09-09T14:44:37;2.20;;;1.00;;
6513;SDS011;3290;47.716;9.070;2022-09-09T14:47:03;4.47;;;1.20;;
6513;SDS011;3290;47.716;9.070;2022-09-09T14:49:29;2.07;;;1.10;;
6513;SDS011;3290;47.716;9.070;2022-09-09T14:51:55;3.83;;;1.33;;
6513;SDS011;3290;47.716;9.070;2022-09-09T14:54:20;2.70;;;1.00;;
6513;SDS011;3290;47.716;9.070;2022-09-09T14:56:48;2.70;;;1.40;;
6513;SDS011;3290;47.716;9.070;2022-09-09T14:59:13;2.03;;;1.03;;
6513;SDS011;3290;47.716;9.070;2022-09-09T15:01:39;2.20;;;0.83;;
6513;SDS011;3290;47.716;9.070;2022-09-09T15:04:04;2.87;;;1.00;;
6513;SDS011;3290;47.716;9.070;2022-09-09T15:06:31;0.80;;;0.70;;
6513;SDS011;3290;47.716;9.070;2022-09-09T15:08:58;1.57;;;0.90;;
6513;SDS011;3290;47.716;9.070;2022-09-09T15:11:29;3.33;;;0.83;;
6513;SDS011;3290;47.716;9.070;2022-09-09T15:13:55;1.53;;;0.90;;
6513;SDS011;3290;47.716;9.070;2022-09-09T15:16:22;2.63;;;1.10;;
6513;SDS011;3290;47.716;9.070;2022-09-09T15:18:50;1.60;;;0.90;;
6513;SDS011;3290;47.716;9.070;2022-09-09T15:21:20;1.03;;;0.80;;
6513;SDS011;3290;47.716;9.070;2022-09-09T15:23:47;2.07;;;0.90;;
6513;SDS011;3290;47.716;9.070;2022-09-09T15:26:14;2.77;;;0.80;;
6513;SDS011;3290;47.716;9.070;2022-09-09T15:28:40;2.03;;;0.93;;
6513;SDS011;3290;47.716;9.070;2022-09-09T15:31:09;1.83;;;0.83;;
6513;SDS011;3290;47.716;9.070;2022-09-09T15:33:39;1.03;;;0.90;;
6513;SDS011;3290;47.716;9.070;2022-09-09T15:36:21;3.30;;;0.90;;
6513;SDS011;3290;47.716;9.070;2022-09-09T15:38:49;1.50;;;0.90;;
6513;SDS011;3290;47.716;9.070;2022-09-09T15:41:17;2.50;;;0.87;;
6513;SDS011;3290;47.716;9.070;2022-09-09T15:43:47;2.37;;;1.07;;
6513;SDS011;3290;47.716;9.070;2022-09-09T15:48:43;2.27;;;0.90;;
6513;SDS011;3290;47.716;9.070;2022-09-09T15:51:10;2.17;;;0.80;;
6513;SDS011;3290;47.716;9.070;2022-09-09T15:53:36;1.93;;;0.83;;
6513;SDS011;3290;47.716;9.070;2022-09-09T15:56:04;4.67;;;1.10;;
6513;SDS011;3290;47.716;9.070;2022-09-09T15:58:31;1.40;;;1.00;;
6513;SDS011;3290;47.716;9.070;2022-09-09T16:01:04;4.13;;;1.17;;
6513;SDS011;3290;47.716;9.070;2022-09-09T16:03:42;2.17;;;1.23;;
6513;SDS011;3290;47.716;9.070;2022-09-09T16:06:10;2.70;;;0.90;;
6513;SDS011;3290;47.716;9.070;2022-09-09T16:08:38;4.30;;;1.10;;
6513;SDS011;3290;47.716;9.070;2022-09-09T16:13:38;2.43;;;0.90;;
6513;SDS011;3290;47.716;9.070;2022-09-09T16:16:04;2.90;;;1.03;;
6513;SDS011;3290;47.716;9.070;2022-09-09T16:18:41;10.77;;;1.67;;
6513;SDS011;3290;47.716;9.070;2022-09-09T16:21:13;3.10;;;0.80;;
6513;SDS011;3290;47.716;9.070;2022-09-09T16:23:44;5.23;;;1.00;;
6513;SDS011;3290;47.716;9.070;2022-09-09T16:26:11;1.70;;;0.90;;
6513;SDS011;3290;47.716;9.070;2022-09-09T16:28:38;1.90;;;0.90;;
6513;SDS011;3290;47.716;9.070;2022-09-09T16:31:07;4.80;;;1.10;;
6513;SDS011;3290;47.716;9.070;2022-09-09T16:33:36;2.50;;;1.20;;
6513;SDS011;3290;47.716;9.070;2022-09-09T16:36:06;1.43;;;1.07;;
6513;SDS011;3290;47.716;9.070;2022-09-09T16:38:32;3.30;;;1.00;;
6513;SDS011;3290;47.716;9.070;2022-09-09T16:40:58;1.73;;;1.40;;
6513;SDS011;3290;47.716;9.070;2022-09-09T16:43:25;1.30;;;0.87;;
6513;SDS011;3290;47.716;9.070;2022-09-09T16:45:50;1.37;;;1.00;;
6513;SDS011;3290;47.716;9.070;2022-09-09T16:48:16;1.03;;;0.93;;
6513;SDS011;3290;47.716;9.070;2022-09-09T16:50:41;2.80;;;1.00;;
6513;SDS011;3290;47.716;9.070;2022-09-09T16:53:06;1.67;;;1.33;;
6513;SDS011;3290;47.716;9.070;2022-09-09T16:55:33;3.50;;;1.10;;
6513;SDS011;3290;47.716;9.070;2022-09-09T16:58:02;3.70;;;1.07;;
6513;SDS011;3290;47.716;9.070;2022-09-09T17:00:28;1.93;;;1.00;;
6513;SDS011;3290;47.716;9.070;2022-09-09T17:02:53;6.03;;;1.70;;
6513;SDS011;3290;47.716;9.070;2022-09-09T17:05:18;4.40;;;1.23;;
6513;SDS011;3290;47.716;9.070;2022-09-09T17:07:44;1.50;;;1.10;;
6513;SDS011;3290;47.716;9.070;2022-09-09T17:10:09;1.00;;;0.90;;
6513;SDS011;3290;47.716;9.070;2022-09-09T17:12:34;1.77;;;1.20;;
6513;SDS011;3290;47.716;9.070;2022-09-09T17:15:00;2.27;;;1.07;;
6513;SDS011;3290;47.716;9.070;2022-09-09T17:17:28;1.50;;;1.07;;
6513;SDS011;3290;47.716;9.070;2022-09-09T17:19:53;2.60;;;1.13;;
6513;SDS011;3290;47.716;9.070;2022-09-09T17:22:19;2.23;;;1.33;;
6513;SDS011;3290;47.716;9.070;2022-09-09T17:24:48;12.63;;;2.27;;
6513;SDS011;3290;47.716;9.070;2022-09-09T17:27:13;1.40;;;1.00;;
6513;SDS011;3290;47.716;9.070;2022-09-09T17:29:39;5.33;;;1.30;;
6513;SDS011;3290;47.716;9.070;2022-09-09T17:32:05;2.17;;;1.50;;
6513;SDS011;3290;47.716;9.070;2022-09-09T17:34:35;2.83;;;1.40;;
6513;SDS011;3290;47.716;9.070;2022-09-09T17:37:01;2.07;;;1.20;;
6513;SDS011;3290;47.716;9.070;2022-09-09T17:39:26;4.20;;;1.13;;
6513;SDS011;3290;47.716;9.070;2022-09-09T17:41:52;5.13;;;1.17;;
6513;SDS011;3290;47.716;9.070;2022-09-09T17:44:19;2.23;;;1.20;;
6513;SDS011;3290;47.716;9.070;2022-09-09T17:46:45;2.60;;;1.00;;